Time;durP1;ratioP1;P1;durP2;ratioP2;P2;SDS_P1;SDS_P2;PMS_P1;PMS_P2;Temp;Humidity;BMP_temperature;BMP_pressure;BME280_temperature;BME280_humidity;BME280_pressure;Samples;Min_cycle;Max_cycle;Signal;HPM_P1;HPM_P2
2022/05/27 00:01:54;;;;;;;;;;;13.90;99.90;;;;;;4997946;28;20667;-79
2022/05/27 00:04:20;;;;;;;;;;;13.90;99.90;;;;;;5019805;28;19929;-78
2022/05/27 00:06:46;;;;;;;;;;;13.80;99.90;;;;;;5016640;28;20550;-78
2022/05/27 00:09:12;;;;;;;;;;;13.80;99.90;;;;;;5019055;28;19991;-78
2022/05/27 00:11:38;;;;;;;;;;;13.80;99.90;;;;;;5020747;28;19968;-79
2022/05/27 00:14:03;;;;;;;;;;;13.80;99.90;;;;;;4997610;28;19929;-78
2022/05/27 00:16:29;;;;;;;;;;;13.80;99.90;;;;;;5018383;28;19929;-78
2022/05/27 00:18:55;;;;;;;;;;;13.70;99.90;;;;;;5017493;28;19924;-78
2022/05/27 00:21:21;;;;;;;;;;;13.70;99.90;;;;;;4994105;28;20272;-78
2022/05/27 00:23:47;;;;;;;;;;;13.70;99.90;;;;;;5015119;28;19924;-77
2022/05/27 00:26:13;;;;;;;;;;;13.70;99.90;;;;;;4996256;28;19952;-78
2022/05/27 00:28:38;;;;;;;;;;;13.70;99.90;;;;;;5014140;28;20337;-77
2022/05/27 00:31:05;;;;;;;;;;;13.70;99.90;;;;;;5011841;28;20026;-77
2022/05/27 00:33:31;;;;;;;;;;;13.60;99.90;;;;;;5015609;28;19935;-77
2022/05/27 00:35:57;;;;;;;;;;;13.70;99.90;;;;;;5014288;28;20089;-78
2022/05/27 00:38:22;;;;;;;;;;;13.60;99.90;;;;;;5014433;28;19972;-78
2022/05/27 00:40:51;;;;;;;;;;;13.70;99.90;;;;;;4997240;28;19939;-77
2022/05/27 00:43:17;;;;;;;;;;;13.60;99.90;;;;;;5010584;28;19932;-77
2022/05/27 00:45:43;;;;;;;;;;;13.60;99.90;;;;;;5016581;28;20277;-77
2022/05/27 00:48:17;;;;;;;;;;;13.60;99.90;;;;;;5017569;28;19940;-77
2022/05/27 00:50:44;;;;;;;;;;;13.60;99.90;;;;;;5016265;28;21117;-77
2022/05/27 00:53:13;;;;;;;;;;;13.60;99.90;;;;;;5014547;28;20393;-78
2022/05/27 00:55:44;;;;;;;;;;;13.60;99.90;;;;;;4998309;28;19929;-78
2022/05/27 00:58:13;;;;;;;;;;;13.70;99.90;;;;;;5013276;28;19940;-77
2022/05/27 01:00:38;;;;;;;;;;;13.60;99.90;;;;;;4997059;28;19929;-78
2022/05/27 01:03:05;;;;;;;;;;;13.60;99.90;;;;;;5013535;28;19933;-77
2022/05/27 01:05:31;;;;;;;;;;;13.60;99.90;;;;;;4997640;28;20837;-77
2022/05/27 01:07:58;;;;;;;;;;;13.60;99.90;;;;;;5017129;28;19936;-77
2022/05/27 01:10:25;;;;;;;;;;;13.60;99.90;;;;;;4992355;28;19930;-77
2022/05/27 01:13:06;;;;;;;;;;;13.60;99.90;;;;;;5018841;28;19937;-77
2022/05/27 01:15:49;;;;;;;;;;;13.60;99.90;;;;;;5017117;28;20698;-77
2022/05/27 01:20:18;;;;;;;;;;;13.60;99.90;;;;;;5015984;28;21011;-77
2022/05/27 01:21:38;;;;;;;;;;;13.60;99.90;;;;;;4996831;28;19940;-78
2022/05/27 01:24:04;;;;;;;;;;;13.70;99.90;;;;;;4985299;28;20724;-77
2022/05/27 01:26:44;;;;;;;;;;;13.80;99.90;;;;;;5023586;28;20019;-77
2022/05/27 01:29:13;;;;;;;;;;;13.70;99.90;;;;;;5009913;28;20024;-77
2022/05/27 01:31:48;;;;;;;;;;;13.80;99.90;;;;;;5016502;28;19932;-78
2022/05/27 01:34:33;;;;;;;;;;;13.80;99.90;;;;;;5002922;28;20592;-77
2022/05/27 01:37:07;;;;;;;;;;;13.80;99.90;;;;;;5005011;28;19925;-77
2022/05/27 01:39:39;;;;;;;;;;;13.90;99.90;;;;;;5019863;28;20381;-78
2022/05/27 01:42:04;;;;;;;;;;;13.90;99.90;;;;;;5027192;28;19933;-77
2022/05/27 01:44:42;;;;;;;;;;;13.80;99.90;;;;;;5019230;28;19932;-77
2022/05/27 01:47:11;;;;;;;;;;;13.80;99.90;;;;;;5003102;28;20590;-77
2022/05/27 01:50:15;;;;;;;;;;;13.80;99.90;;;;;;5020541;28;19963;-78
2022/05/27 01:52:52;;;;;;;;;;;13.90;99.90;;;;;;4944850;28;19970;-78
2022/05/27 01:55:24;;;;;;;;;;;13.90;99.90;;;;;;4947553;28;19930;-77
2022/05/27 01:57:54;;;;;;;;;;;13.90;99.90;;;;;;4970379;28;20016;-78
2022/05/27 02:00:22;;;;;;;;;;;13.90;99.90;;;;;;5017969;28;20377;-77
2022/05/27 02:02:51;;;;;;;;;;;13.80;99.90;;;;;;5021078;28;19932;-78
2022/05/27 02:05:20;;;;;;;;;;;13.80;99.90;;;;;;5034558;28;19929;-78
2022/05/27 02:07:49;;;;;;;;;;;13.90;99.90;;;;;;5022182;28;20388;-77
2022/05/27 02:10:17;;;;;;;;;;;13.80;99.90;;;;;;5037872;28;19983;-78
2022/05/27 02:12:47;;;;;;;;;;;13.80;99.90;;;;;;5040657;28;19936;-77
2022/05/27 02:15:39;;;;;;;;;;;13.70;99.90;;;;;;5010403;28;20688;-78
2022/05/27 02:18:10;;;;;;;;;;;13.70;99.90;;;;;;5025926;28;20020;-78
2022/05/27 02:20:41;;;;;;;;;;;13.70;99.90;;;;;;5035805;28;20051;-78
2022/05/27 02:23:15;;;;;;;;;;;13.60;99.90;;;;;;5038579;28;19935;-78
2022/05/27 02:25:43;;;;;;;;;;;13.60;99.90;;;;;;5034084;28;19972;-79
2022/05/27 02:28:09;;;;;;;;;;;13.60;99.90;;;;;;5009798;28;20055;-77
2022/05/27 02:30:36;;;;;;;;;;;13.60;99.90;;;;;;5007636;28;20600;-78
2022/05/27 02:35:55;;;;;;;;;;;13.50;99.90;;;;;;5029406;28;19943;-78
2022/05/27 02:38:21;;;;;;;;;;;13.50;99.90;;;;;;5031590;28;20678;-78
2022/05/27 02:41:06;;;;;;;;;;;13.40;99.90;;;;;;4996301;28;19955;-77
2022/05/27 02:43:38;;;;;;;;;;;13.40;99.90;;;;;;5005507;28;20405;-77
2022/05/27 02:46:23;;;;;;;;;;;13.40;99.90;;;;;;5032818;28;19928;-78
2022/05/27 02:49:06;;;;;;;;;;;13.40;99.90;;;;;;5033209;28;19976;-78
2022/05/27 02:51:42;;;;;;;;;;;13.40;99.90;;;;;;5034950;28;19929;-78
2022/05/27 02:54:23;;;;;;;;;;;13.30;99.90;;;;;;5030366;28;19936;-78
2022/05/27 02:57:10;;;;;;;;;;;13.30;99.90;;;;;;5032044;28;19986;-78
2022/05/27 02:59:37;;;;;;;;;;;13.30;99.90;;;;;;5013801;28;20027;-78
2022/05/27 03:02:11;;;;;;;;;;;13.20;99.90;;;;;;5010608;28;20142;-78
2022/05/27 03:04:38;;;;;;;;;;;13.20;99.90;;;;;;5030566;28;19959;-78
2022/05/27 03:07:15;;;;;;;;;;;13.20;99.90;;;;;;5023777;28;20908;-78
2022/05/27 03:09:48;;;;;;;;;;;13.20;99.90;;;;;;5026890;28;21105;-78
2022/05/27 03:12:23;;;;;;;;;;;13.20;99.90;;;;;;5022208;28;20357;-77
2022/05/27 03:14:58;;;;;;;;;;;13.20;99.90;;;;;;5030223;28;19967;-77
2022/05/27 03:17:43;;;;;;;;;;;13.10;99.90;;;;;;5013426;28;19961;-78
2022/05/27 03:20:18;;;;;;;;;;;13.10;99.90;;;;;;5016037;28;19928;-78
2022/05/27 03:22:59;;;;;;;;;;;13.20;99.90;;;;;;5005412;28;19939;-78
2022/05/27 03:25:25;;;;;;;;;;;13.10;99.90;;;;;;5014985;28;19929;-78
2022/05/27 03:28:05;;;;;;;;;;;13.10;99.90;;;;;;5033793;28;19928;-78
2022/05/27 03:30:32;;;;;;;;;;;13.10;99.90;;;;;;5029922;28;19937;-78
2022/05/27 03:33:07;;;;;;;;;;;13.20;99.90;;;;;;5011771;28;20002;-77
2022/05/27 03:35:39;;;;;;;;;;;13.10;99.90;;;;;;5011242;28;19959;-78
2022/05/27 03:38:26;;;;;;;;;;;13.10;99.90;;;;;;5007396;28;19943;-78
2022/05/27 03:40:55;;;;;;;;;;;13.10;99.90;;;;;;5028711;28;19933;-78
2022/05/27 03:43:21;;;;;;;;;;;13.20;99.90;;;;;;5025581;28;19928;-78
2022/05/27 03:45:49;;;;;;;;;;;13.20;99.90;;;;;;5029465;28;19936;-77
2022/05/27 03:48:15;;;;;;;;;;;13.20;99.90;;;;;;5028590;28;19929;-77
2022/05/27 03:50:41;;;;;;;;;;;13.20;99.90;;;;;;5031738;28;19975;-77
2022/05/27 03:53:07;;;;;;;;;;;13.30;99.90;;;;;;5019288;28;20047;-78
2022/05/27 03:55:32;;;;;;;;;;;13.20;99.90;;;;;;5035113;28;20745;-78
2022/05/27 03:57:58;;;;;;;;;;;13.20;99.90;;;;;;5018212;28;19939;-78
2022/05/27 04:00:24;;;;;;;;;;;13.20;99.90;;;;;;5038809;28;19929;-78
2022/05/27 04:02:50;;;;;;;;;;;13.30;99.90;;;;;;5034090;28;19933;-78
2022/05/27 04:05:17;;;;;;;;;;;13.20;99.90;;;;;;5037089;28;20058;-78
2022/05/27 04:07:43;;;;;;;;;;;13.30;99.90;;;;;;5037064;28;19933;-78
2022/05/27 04:10:09;;;;;;;;;;;13.30;99.90;;;;;;5018054;28;19967;-78
2022/05/27 04:12:36;;;;;;;;;;;13.30;99.90;;;;;;5038362;28;20015;-79
2022/05/27 04:15:02;;;;;;;;;;;13.20;99.90;;;;;;5018019;28;19928;-78
2022/05/27 04:17:30;;;;;;;;;;;13.30;99.90;;;;;;5021236;28;19933;-78
2022/05/27 04:19:57;;;;;;;;;;;13.30;99.90;;;;;;5016541;28;19932;-78
2022/05/27 04:22:23;;;;;;;;;;;13.30;99.90;;;;;;5036490;28;19935;-79
2022/05/27 04:24:48;;;;;;;;;;;13.30;99.90;;;;;;5014417;28;19929;-78
2022/05/27 04:27:15;;;;;;;;;;;13.30;99.90;;;;;;5036940;28;20318;-78
2022/05/27 04:29:42;;;;;;;;;;;13.30;99.90;;;;;;5034901;28;20404;-78
2022/05/27 04:32:08;;;;;;;;;;;13.40;99.90;;;;;;5016970;28;19928;-78
2022/05/27 04:34:34;;;;;;;;;;;13.40;99.90;;;;;;5019160;28;19932;-78
2022/05/27 04:37:00;;;;;;;;;;;13.40;99.90;;;;;;5009765;28;19932;-78
2022/05/27 04:39:26;;;;;;;;;;;13.40;99.90;;;;;;5034291;28;19929;-79
2022/05/27 04:41:51;;;;;;;;;;;13.40;99.90;;;;;;5040620;28;19967;-79
2022/05/27 04:44:17;;;;;;;;;;;13.50;99.90;;;;;;5034905;28;19963;-79
2022/05/27 04:46:45;;;;;;;;;;;13.50;99.90;;;;;;5033854;28;19928;-78
2022/05/27 04:49:50;;;;;;;;;;;13.50;99.90;;;;;;5017778;28;19935;-78
2022/05/27 04:51:57;;;;;;;;;;;13.50;99.90;;;;;;5002291;28;19929;-79
2022/05/27 04:54:22;;;;;;;;;;;13.50;99.90;;;;;;5030874;28;19936;-78
2022/05/27 04:56:48;;;;;;;;;;;13.50;99.90;;;;;;5018259;28;20046;-79
2022/05/27 04:59:14;;;;;;;;;;;13.60;99.90;;;;;;5031397;28;19929;-79
2022/05/27 05:01:39;;;;;;;;;;;13.60;99.90;;;;;;5030968;28;19932;-79
2022/05/27 05:04:05;;;;;;;;;;;13.60;99.90;;;;;;5035097;28;20208;-78
2022/05/27 05:06:31;;;;;;;;;;;13.70;99.90;;;;;;5033339;28;19928;-79
2022/05/27 05:08:56;;;;;;;;;;;13.60;99.90;;;;;;5024704;28;19940;-80
2022/05/27 05:11:22;;;;;;;;;;;13.60;99.90;;;;;;5039883;28;19987;-80
2022/05/27 05:13:47;;;;;;;;;;;13.80;99.90;;;;;;5035256;28;20421;-79
2022/05/27 05:16:13;;;;;;;;;;;13.80;99.90;;;;;;5016943;28;20019;-79
2022/05/27 05:18:39;;;;;;;;;;;13.90;99.90;;;;;;5014352;28;19932;-80
2022/05/27 05:21:04;;;;;;;;;;;14.10;99.90;;;;;;5038306;28;19929;-79
2022/05/27 05:23:30;;;;;;;;;;;15.90;99.90;;;;;;5018980;28;20294;-79
2022/05/27 05:25:56;;;;;;;;;;;17.60;99.90;;;;;;5034650;28;19929;-80
2022/05/27 05:28:21;;;;;;;;;;;16.90;99.90;;;;;;5004037;28;20337;-79
2022/05/27 05:30:47;;;;;;;;;;;18.40;99.90;;;;;;5036353;28;19933;-78
2022/05/27 05:33:13;;;;;;;;;;;17.00;99.90;;;;;;5040682;28;19928;-79
2022/05/27 05:35:38;;;;;;;;;;;19.30;99.90;;;;;;5001264;28;19963;-78
2022/05/27 05:38:04;;;;;;;;;;;19.10;99.90;;;;;;5040759;28;19925;-79
2022/05/27 05:40:30;;;;;;;;;;;17.80;99.90;;;;;;5042027;28;20980;-79
2022/05/27 05:42:56;;;;;;;;;;;16.90;99.90;;;;;;5018398;28;19932;-79
2022/05/27 05:45:22;;;;;;;;;;;16.40;99.90;;;;;;5016773;28;20010;-80
2022/05/27 05:47:48;;;;;;;;;;;16.10;99.90;;;;;;5036897;28;20019;-79
2022/05/27 05:50:14;;;;;;;;;;;15.70;99.90;;;;;;5041705;28;19929;-79
2022/05/27 05:52:40;;;;;;;;;;;16.00;99.90;;;;;;5020451;28;19930;-78
2022/05/27 05:55:06;;;;;;;;;;;16.50;99.90;;;;;;5037431;28;19939;-79
2022/05/27 05:57:31;;;;;;;;;;;16.70;99.90;;;;;;5046755;28;19929;-78
2022/05/27 05:59:59;;;;;;;;;;;16.20;99.90;;;;;;5036724;28;19990;-78
2022/05/27 06:02:24;;;;;;;;;;;16.10;99.90;;;;;;5019036;28;20047;-78
2022/05/27 06:04:51;;;;;;;;;;;16.00;99.90;;;;;;5040567;28;19932;-78
2022/05/27 06:07:16;;;;;;;;;;;16.30;99.90;;;;;;5039736;28;20665;-78
2022/05/27 06:09:42;;;;;;;;;;;16.60;99.90;;;;;;5038450;28;19932;-78
2022/05/27 06:12:08;;;;;;;;;;;17.00;99.90;;;;;;5021707;28;19928;-79
2022/05/27 06:14:37;;;;;;;;;;;16.90;99.90;;;;;;5037622;28;19928;-78
2022/05/27 06:17:03;;;;;;;;;;;16.40;99.90;;;;;;5041821;28;19974;-78
2022/05/27 06:19:28;;;;;;;;;;;16.30;99.90;;;;;;5034195;28;19932;-78
2022/05/27 06:21:54;;;;;;;;;;;15.90;99.90;;;;;;5020943;28;20821;-78
2022/05/27 06:24:20;;;;;;;;;;;15.60;99.90;;;;;;5034170;28;20701;-78
2022/05/27 06:26:45;;;;;;;;;;;15.60;99.90;;;;;;5023724;28;19983;-77
2022/05/27 06:34:40;;;;;;;;;;;15.80;99.90;;;;;;5030095;28;20071;-78
2022/05/27 06:37:13;;;;;;;;;;;16.70;99.90;;;;;;5031650;28;19948;-78
2022/05/27 06:39:40;;;;;;;;;;;16.90;99.90;;;;;;5034035;28;20136;-78
2022/05/27 06:42:09;;;;;;;;;;;16.80;99.90;;;;;;5012524;28;20027;-77
2022/05/27 06:44:36;;;;;;;;;;;16.80;99.90;;;;;;5008636;28;20485;-78
2022/05/27 06:47:01;;;;;;;;;;;17.00;99.90;;;;;;5020451;28;20433;-78
2022/05/27 06:49:27;;;;;;;;;;;16.90;99.90;;;;;;5024029;28;19976;-77
2022/05/27 06:51:52;;;;;;;;;;;15.90;99.90;;;;;;5038975;28;20976;-78
2022/05/27 06:54:27;;;;;;;;;;;16.60;99.90;;;;;;5029557;28;20003;-77
2022/05/27 06:56:53;;;;;;;;;;;16.60;99.90;;;;;;5038349;28;19940;-77
2022/05/27 06:59:20;;;;;;;;;;;16.40;99.90;;;;;;5033278;28;19961;-79
2022/05/27 07:01:46;;;;;;;;;;;16.30;99.90;;;;;;5032793;28;19932;-77
2022/05/27 07:04:12;;;;;;;;;;;16.20;99.90;;;;;;5039485;28;19935;-77
2022/05/27 07:06:40;;;;;;;;;;;16.00;99.90;;;;;;5018724;28;19928;-78
2022/05/27 07:09:06;;;;;;;;;;;16.20;99.90;;;;;;5041536;28;20302;-77
2022/05/27 07:11:33;;;;;;;;;;;16.60;99.90;;;;;;5038137;28;19936;-77
2022/05/27 07:13:58;;;;;;;;;;;16.30;99.90;;;;;;5035933;28;20133;-77
2022/05/27 07:16:24;;;;;;;;;;;16.70;99.90;;;;;;5034502;28;19979;-77
2022/05/27 07:18:50;;;;;;;;;;;17.10;99.90;;;;;;5036660;28;19928;-77
2022/05/27 07:21:15;;;;;;;;;;;17.40;99.90;;;;;;5036711;28;19963;-77
2022/05/27 07:23:41;;;;;;;;;;;17.40;99.90;;;;;;5037863;28;20337;-77
2022/05/27 07:26:06;;;;;;;;;;;17.40;99.90;;;;;;5037401;28;19972;-77
2022/05/27 07:28:32;;;;;;;;;;;17.20;99.90;;;;;;5038899;28;20712;-80
2022/05/27 07:31:01;;;;;;;;;;;17.30;99.90;;;;;;5018460;28;19956;-77
2022/05/27 07:33:27;;;;;;;;;;;17.50;99.90;;;;;;5010670;28;19928;-81
2022/05/27 07:35:53;;;;;;;;;;;17.10;99.90;;;;;;5019502;28;19929;-79
2022/05/27 07:38:18;;;;;;;;;;;16.60;99.90;;;;;;5019629;28;21016;-77
2022/05/27 07:40:44;;;;;;;;;;;17.10;99.90;;;;;;5034153;28;20027;-78
2022/05/27 07:43:09;;;;;;;;;;;17.30;99.90;;;;;;5035696;28;20000;-80
2022/05/27 07:45:36;;;;;;;;;;;17.30;99.90;;;;;;5035722;28;20353;-78
2022/05/27 07:48:02;;;;;;;;;;;17.30;99.90;;;;;;5022081;28;19936;-80
2022/05/27 07:50:28;;;;;;;;;;;17.60;99.90;;;;;;5019853;28;20033;-79
2022/05/27 07:52:54;;;;;;;;;;;17.90;99.90;;;;;;5037685;28;19932;-81
2022/05/27 07:55:19;;;;;;;;;;;17.90;99.90;;;;;;5014993;28;19929;-80
2022/05/27 07:57:46;;;;;;;;;;;17.10;99.90;;;;;;5022336;28;20842;-78
2022/05/27 08:00:14;;;;;;;;;;;17.00;99.90;;;;;;5038123;28;20386;-77
2022/05/27 08:02:39;;;;;;;;;;;16.50;99.90;;;;;;5031818;28;20785;-78
2022/05/27 08:05:07;;;;;;;;;;;16.80;99.90;;;;;;5004824;28;19932;-78
2022/05/27 08:07:33;;;;;;;;;;;17.00;99.90;;;;;;5026390;28;19939;-79
2022/05/27 08:09:58;;;;;;;;;;;17.20;99.90;;;;;;5021917;28;19928;-76
2022/05/27 08:12:24;;;;;;;;;;;17.20;99.90;;;;;;5031300;28;19928;-79
2022/05/27 08:14:50;;;;;;;;;;;17.30;99.90;;;;;;5037607;28;19932;-78
2022/05/27 08:17:15;;;;;;;;;;;17.50;99.90;;;;;;5013079;28;20499;-81
2022/05/27 08:19:41;;;;;;;;;;;17.70;99.90;;;;;;5010640;28;19929;-79
2022/05/27 08:22:07;;;;;;;;;;;17.70;99.90;;;;;;5018061;28;19929;-78
2022/05/27 08:24:32;;;;;;;;;;;17.60;99.90;;;;;;5011817;28;20377;-79
2022/05/27 08:26:58;;;;;;;;;;;17.60;99.90;;;;;;5014834;28;20721;-79
2022/05/27 08:29:23;;;;;;;;;;;17.50;99.90;;;;;;5032485;28;19941;-81
2022/05/27 08:31:49;;;;;;;;;;;17.40;99.90;;;;;;5032690;28;19936;-80
2022/05/27 08:39:47;;;;;;;;;;;16.10;99.90;;;;;;5035692;28;19929;-80
2022/05/27 08:42:31;;;;;;;;;;;15.90;99.90;;;;;;5009238;28;20400;-80
2022/05/27 08:45:03;;;;;;;;;;;16.50;99.90;;;;;;5037407;28;19944;-78
2022/05/27 08:47:31;;;;;;;;;;;16.70;99.90;;;;;;5030180;28;19929;-80
2022/05/27 08:50:15;;;;;;;;;;;17.10;99.90;;;;;;5026395;28;19944;-81
2022/05/27 08:52:42;;;;;;;;;;;17.10;99.90;;;;;;5031479;28;19975;-80
2022/05/27 08:59:26;;;;;;;;;;;17.20;99.90;;;;;;4996952;28;19933;-81
2022/05/27 09:00:48;;;;;;;;;;;17.60;99.90;;;;;;5023046;28;20007;-78
2022/05/27 09:03:14;;;;;;;;;;;17.70;99.90;;;;;;5000590;28;19998;-81
2022/05/27 09:05:44;;;;;;;;;;;17.60;99.90;;;;;;5021461;28;19928;-79
2022/05/27 09:08:15;;;;;;;;;;;17.70;99.90;;;;;;4988759;28;20309;-79
2022/05/27 09:10:47;;;;;;;;;;;16.90;99.90;;;;;;5006462;28;19936;-80
2022/05/27 09:13:28;;;;;;;;;;;17.30;99.90;;;;;;5030068;28;20039;-80
2022/05/27 09:15:59;;;;;;;;;;;17.00;99.90;;;;;;5016274;28;19932;-79
2022/05/27 09:18:35;;;;;;;;;;;17.20;99.90;;;;;;5027286;28;19928;-82
2022/05/27 09:21:00;;;;;;;;;;;17.40;99.90;;;;;;5032999;28;19939;-80
2022/05/27 09:23:42;;;;;;;;;;;17.10;99.90;;;;;;5029781;28;19928;-81
2022/05/27 09:26:10;;;;;;;;;;;17.30;99.90;;;;;;5013486;28;19925;-82
2022/05/27 09:28:36;;;;;;;;;;;17.40;99.90;;;;;;5007470;28;20370;-78
2022/05/27 09:31:03;;;;;;;;;;;17.40;99.90;;;;;;5030285;28;19929;-80
2022/05/27 09:33:30;;;;;;;;;;;17.60;99.90;;;;;;5011323;28;20062;-82
2022/05/27 09:35:59;;;;;;;;;;;17.50;99.90;;;;;;5001392;28;19929;-81
2022/05/27 09:38:31;;;;;;;;;;;17.40;99.90;;;;;;5031416;28;20353;-84
2022/05/27 09:40:56;;;;;;;;;;;17.50;99.90;;;;;;5023486;28;19968;-80
2022/05/27 09:43:41;;;;;;;;;;;18.10;99.90;;;;;;5030878;28;20842;-79
2022/05/27 09:46:10;;;;;;;;;;;17.70;99.90;;;;;;5010255;28;19929;-79
2022/05/27 09:48:36;;;;;;;;;;;17.80;99.90;;;;;;5034913;28;19929;-78
2022/05/27 09:51:04;;;;;;;;;;;17.80;99.90;;;;;;5025872;28;20149;-77
2022/05/27 09:53:44;;;;;;;;;;;17.10;99.90;;;;;;5003154;28;20603;-79
2022/05/27 09:56:11;;;;;;;;;;;16.80;99.90;;;;;;5030191;28;20714;-81
2022/05/27 09:58:41;;;;;;;;;;;16.80;99.90;;;;;;5027549;28;20374;-80
2022/05/27 10:01:21;;;;;;;;;;;16.60;99.90;;;;;;5025890;28;19960;-80
2022/05/27 10:03:57;;;;;;;;;;;16.70;99.90;;;;;;5009874;28;19928;-82
2022/05/27 10:06:25;;;;;;;;;;;16.50;99.90;;;;;;5027461;28;19925;-80
2022/05/27 10:08:51;;;;;;;;;;;16.40;99.90;;;;;;5013004;28;19940;-80
2022/05/27 10:11:19;;;;;;;;;;;16.40;99.90;;;;;;5009574;28;19928;-79
2022/05/27 10:13:46;;;;;;;;;;;17.30;99.90;;;;;;4992180;28;20433;-79
2022/05/27 10:16:23;;;;;;;;;;;17.50;99.90;;;;;;4996626;28;19928;-81
2022/05/27 10:19:04;;;;;;;;;;;18.20;99.90;;;;;;5014770;28;19929;-81
2022/05/27 10:21:31;;;;;;;;;;;17.70;99.90;;;;;;4064659;28;10001073;-78
2022/05/27 10:24:12;;;;;;;;;;;17.50;99.90;;;;;;5000386;28;20532;-80
2022/05/27 10:26:37;;;;;;;;;;;17.90;99.90;;;;;;4999571;28;19992;-80
2022/05/27 10:29:10;;;;;;;;;;;18.10;99.90;;;;;;4985345;28;20550;-81
2022/05/27 10:31:36;;;;;;;;;;;17.70;99.90;;;;;;5003666;28;20265;-77
2022/05/27 10:34:02;;;;;;;;;;;17.80;99.90;;;;;;4999874;28;19943;-80
2022/05/27 10:36:40;;;;;;;;;;;17.50;99.90;;;;;;4977583;28;20036;-80
2022/05/27 10:39:15;;;;;;;;;;;17.70;99.90;;;;;;4106281;28;10000818;-83
2022/05/27 10:42:03;;;;;;;;;;;17.50;99.90;;;;;;4980610;28;19940;-82
2022/05/27 10:44:37;;;;;;;;;;;17.90;99.90;;;;;;4969557;28;20339;-81
2022/05/27 10:47:04;;;;;;;;;;;17.80;99.90;;;;;;4981874;28;20007;-80
2022/05/27 10:49:32;;;;;;;;;;;17.20;99.90;;;;;;4980126;28;20526;-80
2022/05/27 10:52:17;;;;;;;;;;;17.70;99.90;;;;;;4989971;28;19985;-78
2022/05/27 10:54:48;;;;;;;;;;;18.30;99.90;;;;;;4104610;28;10001148;-78
2022/05/27 11:03:10;;;;;;;;;;;17.00;99.90;;;;;;4083324;28;10000265;-79
2022/05/27 11:05:55;;;;;;;;;;;18.20;99.90;;;;;;4109698;28;10000715;-80
2022/05/27 11:08:23;;;;;;;;;;;18.20;99.90;;;;;;4999993;28;19941;-80
2022/05/27 11:10:49;;;;;;;;;;;17.90;99.90;;;;;;4964447;28;19929;-80
2022/05/27 11:16:14;;;;;;;;;;;17.30;99.90;;;;;;4974837;28;20334;-80
2022/05/27 11:18:45;;;;;;;;;;;17.20;99.90;;;;;;4964051;28;19940;-79
2022/05/27 11:21:21;;;;;;;;;;;16.70;99.90;;;;;;4985489;28;20023;-80
2022/05/27 11:23:56;;;;;;;;;;;16.50;99.90;;;;;;4996838;28;20020;-81
2022/05/27 11:26:34;;;;;;;;;;;16.80;99.90;;;;;;4971462;28;22183;-79
2022/05/27 11:29:18;;;;;;;;;;;16.90;99.90;;;;;;4987623;28;19991;-80
2022/05/27 11:31:59;;;;;;;;;;;16.50;99.90;;;;;;4992458;28;20410;-78
2022/05/27 11:34:49;;;;;;;;;;;17.40;99.90;;;;;;4976715;28;19929;-81
2022/05/27 11:37:15;;;;;;;;;;;17.10;99.90;;;;;;4976276;28;19964;-81
2022/05/27 11:39:58;;;;;;;;;;;16.90;99.90;;;;;;4987332;28;19939;-80
2022/05/27 11:42:47;;;;;;;;;;;17.10;99.90;;;;;;5005464;28;20055;-81
2022/05/27 11:45:16;;;;;;;;;;;16.80;99.90;;;;;;4972650;28;19929;-80
2022/05/27 11:47:45;;;;;;;;;;;17.30;99.90;;;;;;4994221;28;19929;-80
2022/05/27 11:50:25;;;;;;;;;;;17.50;99.90;;;;;;4997788;28;20816;-79
2022/05/27 11:53:03;;;;;;;;;;;17.10;99.90;;;;;;5006312;28;20032;-80
2022/05/27 11:55:33;;;;;;;;;;;17.10;99.90;;;;;;5002574;28;20889;-79
2022/05/27 11:58:06;;;;;;;;;;;17.50;99.90;;;;;;5014105;28;19940;-81
2022/05/27 12:00:35;;;;;;;;;;;18.20;99.90;;;;;;4995174;28;19936;-80
2022/05/27 12:03:11;;;;;;;;;;;17.70;99.90;;;;;;5012635;28;19933;-80
2022/05/27 12:05:42;;;;;;;;;;;17.50;99.90;;;;;;4991948;28;19987;-78
2022/05/27 12:08:24;;;;;;;;;;;18.10;99.90;;;;;;4991887;28;20008;-81
2022/05/27 12:10:57;;;;;;;;;;;18.40;99.90;;;;;;4992995;28;19990;-78
2022/05/27 12:13:22;;;;;;;;;;;18.60;99.90;;;;;;5007684;28;19983;-76
2022/05/27 12:15:53;;;;;;;;;;;18.80;99.90;;;;;;5008678;28;20024;-81
2022/05/27 12:18:23;;;;;;;;;;;18.90;99.90;;;;;;5005912;28;20419;-78
2022/05/27 12:20:49;;;;;;;;;;;18.80;99.90;;;;;;4993521;28;20256;-78
2022/05/27 12:23:16;;;;;;;;;;;18.40;99.90;;;;;;4988175;28;19933;-79
2022/05/27 12:25:44;;;;;;;;;;;18.00;99.90;;;;;;4963622;28;20012;-80
2022/05/27 12:28:10;;;;;;;;;;;18.80;99.90;;;;;;4969875;28;19999;-80
2022/05/27 12:30:41;;;;;;;;;;;18.90;99.90;;;;;;4992021;28;21105;-81
2022/05/27 12:33:10;;;;;;;;;;;19.30;99.90;;;;;;4965398;28;19929;-83
2022/05/27 12:35:36;;;;;;;;;;;18.60;99.90;;;;;;4939087;28;20215;-79
2022/05/27 12:38:15;;;;;;;;;;;19.10;99.90;;;;;;4993934;28;20382;-80
2022/05/27 12:40:43;;;;;;;;;;;19.00;99.90;;;;;;4973853;28;19984;-82
2022/05/27 12:43:11;;;;;;;;;;;18.50;99.90;;;;;;4993342;28;19929;-80
2022/05/27 12:45:44;;;;;;;;;;;17.90;99.90;;;;;;4995279;28;20015;-79
2022/05/27 12:48:11;;;;;;;;;;;18.50;99.90;;;;;;4993975;28;19982;-79
2022/05/27 12:50:38;;;;;;;;;;;18.20;99.90;;;;;;4974243;28;19934;-82
2022/05/27 12:53:18;;;;;;;;;;;18.10;99.90;;;;;;4979983;28;20635;-81
2022/05/27 13:01:27;;;;;;;;;;;17.40;99.90;;;;;;4991903;28;20425;-83
2022/05/27 13:03:55;;;;;;;;;;;17.50;99.90;;;;;;4992892;28;19955;-82
2022/05/27 13:06:25;;;;;;;;;;;17.60;99.90;;;;;;4981176;28;20122;-81
2022/05/27 13:08:53;;;;;;;;;;;17.50;99.90;;;;;;4988400;28;19933;-80
2022/05/27 13:11:22;;;;;;;;;;;17.10;99.90;;;;;;4969496;28;19925;-81
2022/05/27 13:13:49;;;;;;;;;;;16.90;99.90;;;;;;4981899;28;20326;-81
2022/05/27 13:16:25;;;;;;;;;;;16.80;99.90;;;;;;4991704;28;19929;-83
2022/05/27 13:18:57;;;;;;;;;;;16.60;99.90;;;;;;4969348;28;19940;-81
2022/05/27 13:21:41;;;;;;;;;;;16.40;99.90;;;;;;4990806;28;19930;-81
2022/05/27 13:24:22;;;;;;;;;;;16.20;99.90;;;;;;4992680;28;19984;-79
2022/05/27 13:26:54;;;;;;;;;;;16.40;99.90;;;;;;4972371;28;19937;-80
2022/05/27 13:29:28;;;;;;;;;;;16.90;99.90;;;;;;4976454;28;19929;-80
2022/05/27 13:32:03;;;;;;;;;;;16.90;99.90;;;;;;4993330;28;19980;-80
2022/05/27 13:34:47;;;;;;;;;;;16.80;99.90;;;;;;4970422;28;19929;-80
2022/05/27 13:37:19;;;;;;;;;;;16.80;99.90;;;;;;4969962;28;20883;-82
2022/05/27 13:39:53;;;;;;;;;;;17.20;99.90;;;;;;4992263;28;19929;-81
2022/05/27 13:42:33;;;;;;;;;;;17.70;99.90;;;;;;4990043;28;19929;-80
2022/05/27 13:45:01;;;;;;;;;;;18.10;99.90;;;;;;4994650;28;21275;-82
2022/05/27 13:47:28;;;;;;;;;;;18.20;99.90;;;;;;4983198;28;20692;-81
2022/05/27 13:49:53;;;;;;;;;;;18.40;99.90;;;;;;4964034;28;20357;-80
2022/05/27 13:52:19;;;;;;;;;;;17.70;99.90;;;;;;4984427;28;20854;-77
2022/05/27 13:54:45;;;;;;;;;;;17.90;99.90;;;;;;4981512;28;19968;-80
2022/05/27 13:57:12;;;;;;;;;;;17.90;99.90;;;;;;4971440;28;19965;-80
2022/05/27 13:59:42;;;;;;;;;;;17.70;99.90;;;;;;4992142;28;20000;-82
2022/05/27 14:02:14;;;;;;;;;;;17.80;99.90;;;;;;4974493;28;20536;-82
2022/05/27 14:04:44;;;;;;;;;;;18.00;99.90;;;;;;4989821;28;20764;-81
2022/05/27 14:07:20;;;;;;;;;;;18.10;99.90;;;;;;4991253;28;20024;-80
2022/05/27 14:09:54;;;;;;;;;;;17.80;99.90;;;;;;4972607;28;19933;-79
2022/05/27 14:12:20;;;;;;;;;;;17.80;99.90;;;;;;5002835;28;20754;-81
2022/05/27 14:14:51;;;;;;;;;;;17.50;99.90;;;;;;4994272;28;20031;-83
2022/05/27 14:17:18;;;;;;;;;;;17.10;99.90;;;;;;4980630;28;20154;-81
2022/05/27 14:19:44;;;;;;;;;;;17.20;99.90;;;;;;4999401;28;19975;-81
2022/05/27 14:24:54;;;;;;;;;;;17.10;99.90;;;;;;4990668;28;19936;-79
2022/05/27 14:27:22;;;;;;;;;;;17.40;99.90;;;;;;4971848;28;20337;-80
2022/05/27 14:29:47;;;;;;;;;;;17.70;99.90;;;;;;4974275;28;19929;-82
2022/05/27 14:32:18;;;;;;;;;;;17.90;99.90;;;;;;4994066;28;20381;-81
2022/05/27 14:34:52;;;;;;;;;;;17.60;99.90;;;;;;4979278;28;19929;-81
2022/05/27 14:37:17;;;;;;;;;;;17.40;99.90;;;;;;4985082;28;19929;-80
2022/05/27 14:39:43;;;;;;;;;;;17.10;99.90;;;;;;4972955;28;20043;-83
2022/05/27 14:42:09;;;;;;;;;;;16.80;99.90;;;;;;4982922;28;20469;-82
2022/05/27 14:44:40;;;;;;;;;;;16.50;99.90;;;;;;4989488;28;20443;-81
2022/05/27 14:47:07;;;;;;;;;;;16.40;99.90;;;;;;4977756;28;19970;-79
2022/05/27 14:49:50;;;;;;;;;;;16.10;99.90;;;;;;4995554;28;20958;-81
2022/05/27 14:52:17;;;;;;;;;;;16.20;99.90;;;;;;4995967;28;19984;-80
2022/05/27 14:54:44;;;;;;;;;;;16.70;99.90;;;;;;4979067;28;19972;-79
2022/05/27 14:57:16;;;;;;;;;;;16.40;99.90;;;;;;4998583;28;19934;-79
2022/05/27 14:59:51;;;;;;;;;;;16.50;99.90;;;;;;4984597;28;19929;-78
2022/05/27 15:02:20;;;;;;;;;;;16.30;99.90;;;;;;5002058;28;20165;-81
2022/05/27 15:04:57;;;;;;;;;;;16.10;99.90;;;;;;5003219;28;19929;-82
2022/05/27 15:07:29;;;;;;;;;;;16.30;99.90;;;;;;5006062;28;19937;-80